sensor_id;sensor_type;location;lat;lon;timestamp;P1;durP1;ratioP1;P2;durP2;ratioP2
25922;SDS011;13725;51.170;4.442;2022-09-21T00:01:07;10.90;;;2.72;;
25922;SDS011;13725;51.170;4.442;2022-09-21T00:03:34;8.98;;;3.50;;
25922;SDS011;13725;51.170;4.442;2022-09-21T00:06:01;7.32;;;3.08;;
25922;SDS011;13725;51.170;4.442;2022-09-21T00:08:31;6.85;;;2.92;;
25922;SDS011;13725;51.170;4.442;2022-09-21T00:10:57;10.00;;;2.72;;
25922;SDS011;13725;51.170;4.442;2022-09-21T00:13:24;8.77;;;3.58;;
25922;SDS011;13725;51.170;4.442;2022-09-21T00:15:53;3.85;;;2.58;;
25922;SDS011;13725;51.170;4.442;2022-09-21T00:18:19;8.32;;;2.95;;
25922;SDS011;13725;51.170;4.442;2022-09-21T00:20:46;5.82;;;2.67;;
25922;SDS011;13725;51.170;4.442;2022-09-21T00:23:12;5.63;;;2.85;;
25922;SDS011;13725;51.170;4.442;2022-09-21T00:25:38;7.03;;;3.20;;
25922;SDS011;13725;51.170;4.442;2022-09-21T00:28:04;10.10;;;3.30;;
25922;SDS011;13725;51.170;4.442;2022-09-21T00:30:29;7.97;;;2.88;;
25922;SDS011;13725;51.170;4.442;2022-09-21T00:32:56;6.97;;;3.22;;
25922;SDS011;13725;51.170;4.442;2022-09-21T00:35:22;5.20;;;3.20;;
25922;SDS011;13725;51.170;4.442;2022-09-21T00:37:48;6.75;;;3.13;;
25922;SDS011;13725;51.170;4.442;2022-09-21T00:40:13;4.45;;;2.72;;
25922;SDS011;13725;51.170;4.442;2022-09-21T00:42:39;4.35;;;2.90;;
25922;SDS011;13725;51.170;4.442;2022-09-21T00:45:05;7.90;;;3.28;;
25922;SDS011;13725;51.170;4.442;2022-09-21T00:47:40;6.22;;;2.90;;
25922;SDS011;13725;51.170;4.442;2022-09-21T00:50:09;6.35;;;2.70;;
25922;SDS011;13725;51.170;4.442;2022-09-21T00:52:42;6.70;;;3.13;;
25922;SDS011;13725;51.170;4.442;2022-09-21T00:55:20;9.18;;;3.22;;
25922;SDS011;13725;51.170;4.442;2022-09-21T00:57:52;9.88;;;3.05;;
25922;SDS011;13725;51.170;4.442;2022-09-21T01:00:23;6.90;;;3.17;;
25922;SDS011;13725;51.170;4.442;2022-09-21T01:02:49;5.88;;;3.17;;
25922;SDS011;13725;51.170;4.442;2022-09-21T01:05:15;6.72;;;3.25;;
25922;SDS011;13725;51.170;4.442;2022-09-21T01:07:45;11.00;;;3.45;;
25922;SDS011;13725;51.170;4.442;2022-09-21T01:10:13;8.30;;;3.38;;
25922;SDS011;13725;51.170;4.442;2022-09-21T01:15:38;9.50;;;3.55;;
25922;SDS011;13725;51.170;4.442;2022-09-21T01:29:22;8.15;;;3.55;;
25922;SDS011;13725;51.170;4.442;2022-09-21T01:31:55;6.85;;;2.97;;
25922;SDS011;13725;51.170;4.442;2022-09-21T01:34:42;7.22;;;3.40;;
25922;SDS011;13725;51.170;4.442;2022-09-21T01:37:16;9.02;;;3.50;;
25922;SDS011;13725;51.170;4.442;2022-09-21T01:39:46;9.00;;;3.25;;
25922;SDS011;13725;51.170;4.442;2022-09-21T01:42:16;6.28;;;3.45;;
25922;SDS011;13725;51.170;4.442;2022-09-21T01:44:45;9.90;;;3.80;;
25922;SDS011;13725;51.170;4.442;2022-09-21T01:47:12;7.03;;;3.50;;
25922;SDS011;13725;51.170;4.442;2022-09-21T01:49:47;9.07;;;3.60;;
25922;SDS011;13725;51.170;4.442;2022-09-21T01:54:51;8.88;;;4.38;;
25922;SDS011;13725;51.170;4.442;2022-09-21T01:57:28;7.88;;;3.30;;
25922;SDS011;13725;51.170;4.442;2022-09-21T01:59:55;8.37;;;3.77;;
25922;SDS011;13725;51.170;4.442;2022-09-21T02:02:29;8.13;;;3.65;;
25922;SDS011;13725;51.170;4.442;2022-09-21T02:05:14;7.93;;;3.47;;
25922;SDS011;13725;51.170;4.442;2022-09-21T02:07:44;7.05;;;3.60;;
25922;SDS011;13725;51.170;4.442;2022-09-21T02:10:13;5.07;;;3.30;;
25922;SDS011;13725;51.170;4.442;2022-09-21T02:12:45;9.55;;;3.60;;
25922;SDS011;13725;51.170;4.442;2022-09-21T02:15:12;7.85;;;3.45;;
25922;SDS011;13725;51.170;4.442;2022-09-21T02:17:48;5.93;;;3.75;;
25922;SDS011;13725;51.170;4.442;2022-09-21T02:20:55;7.65;;;3.80;;
25922;SDS011;13725;51.170;4.442;2022-09-21T02:23:29;9.57;;;3.95;;
25922;SDS011;13725;51.170;4.442;2022-09-21T02:26:09;4.85;;;3.25;;
25922;SDS011;13725;51.170;4.442;2022-09-21T02:28:45;13.27;;;3.70;;
25922;SDS011;13725;51.170;4.442;2022-09-21T02:36:48;8.45;;;3.97;;
25922;SDS011;13725;51.170;4.442;2022-09-21T02:39:31;6.90;;;3.67;;
25922;SDS011;13725;51.170;4.442;2022-09-21T02:42:07;6.93;;;3.63;;
25922;SDS011;13725;51.170;4.442;2022-09-21T02:44:38;7.15;;;3.55;;
25922;SDS011;13725;51.170;4.442;2022-09-21T02:47:18;9.45;;;4.22;;
25922;SDS011;13725;51.170;4.442;2022-09-21T02:49:49;9.15;;;3.92;;
25922;SDS011;13725;51.170;4.442;2022-09-21T02:52:19;6.50;;;3.45;;
25922;SDS011;13725;51.170;4.442;2022-09-21T02:54:47;9.57;;;4.22;;
25922;SDS011;13725;51.170;4.442;2022-09-21T02:57:17;5.50;;;3.78;;
25922;SDS011;13725;51.170;4.442;2022-09-21T02:59:45;7.70;;;3.80;;
25922;SDS011;13725;51.170;4.442;2022-09-21T03:02:11;7.70;;;4.38;;
25922;SDS011;13725;51.170;4.442;2022-09-21T03:04:38;7.13;;;4.07;;
25922;SDS011;13725;51.170;4.442;2022-09-21T03:07:05;8.57;;;4.22;;
25922;SDS011;13725;51.170;4.442;2022-09-21T03:09:32;8.43;;;4.18;;
25922;SDS011;13725;51.170;4.442;2022-09-21T03:11:58;7.53;;;4.38;;
25922;SDS011;13725;51.170;4.442;2022-09-21T03:14:24;11.05;;;4.80;;
25922;SDS011;13725;51.170;4.442;2022-09-21T03:16:49;12.32;;;5.50;;
25922;SDS011;13725;51.170;4.442;2022-09-21T03:19:16;10.73;;;5.70;;
25922;SDS011;13725;51.170;4.442;2022-09-21T03:21:42;9.18;;;5.18;;
25922;SDS011;13725;51.170;4.442;2022-09-21T03:24:07;9.35;;;4.97;;
25922;SDS011;13725;51.170;4.442;2022-09-21T03:26:33;10.35;;;4.63;;
25922;SDS011;13725;51.170;4.442;2022-09-21T03:28:59;12.20;;;4.28;;
25922;SDS011;13725;51.170;4.442;2022-09-21T03:31:25;8.95;;;4.38;;
25922;SDS011;13725;51.170;4.442;2022-09-21T03:33:51;7.55;;;3.83;;
25922;SDS011;13725;51.170;4.442;2022-09-21T03:36:16;10.23;;;4.97;;
25922;SDS011;13725;51.170;4.442;2022-09-21T03:38:42;10.05;;;4.50;;
25922;SDS011;13725;51.170;4.442;2022-09-21T03:41:08;8.18;;;4.45;;
25922;SDS011;13725;51.170;4.442;2022-09-21T03:43:34;9.25;;;4.60;;
25922;SDS011;13725;51.170;4.442;2022-09-21T03:46:00;11.23;;;4.80;;
25922;SDS011;13725;51.170;4.442;2022-09-21T03:48:25;9.40;;;4.07;;
25922;SDS011;13725;51.170;4.442;2022-09-21T03:50:51;7.85;;;4.57;;
25922;SDS011;13725;51.170;4.442;2022-09-21T03:53:17;10.25;;;4.63;;
25922;SDS011;13725;51.170;4.442;2022-09-21T03:55:43;8.23;;;4.53;;
25922;SDS011;13725;51.170;4.442;2022-09-21T03:58:09;9.90;;;5.40;;
25922;SDS011;13725;51.170;4.442;2022-09-21T04:00:34;12.98;;;5.15;;
25922;SDS011;13725;51.170;4.442;2022-09-21T04:03:00;15.52;;;5.10;;
25922;SDS011;13725;51.170;4.442;2022-09-21T04:05:26;8.02;;;4.88;;
25922;SDS011;13725;51.170;4.442;2022-09-21T04:07:52;7.90;;;5.00;;
25922;SDS011;13725;51.170;4.442;2022-09-21T04:10:20;7.35;;;4.55;;
25922;SDS011;13725;51.170;4.442;2022-09-21T04:12:51;8.07;;;4.78;;
25922;SDS011;13725;51.170;4.442;2022-09-21T04:15:21;11.02;;;5.22;;
25922;SDS011;13725;51.170;4.442;2022-09-21T04:17:50;10.90;;;5.00;;
25922;SDS011;13725;51.170;4.442;2022-09-21T04:20:17;10.95;;;5.05;;
25922;SDS011;13725;51.170;4.442;2022-09-21T04:22:43;9.98;;;5.20;;
25922;SDS011;13725;51.170;4.442;2022-09-21T04:25:10;8.75;;;4.82;;
25922;SDS011;13725;51.170;4.442;2022-09-21T04:27:36;10.07;;;4.78;;
25922;SDS011;13725;51.170;4.442;2022-09-21T04:30:02;13.13;;;6.57;;
25922;SDS011;13725;51.170;4.442;2022-09-21T04:32:29;10.68;;;5.32;;
25922;SDS011;13725;51.170;4.442;2022-09-21T04:34:54;11.98;;;5.25;;
25922;SDS011;13725;51.170;4.442;2022-09-21T04:37:20;13.30;;;5.50;;
25922;SDS011;13725;51.170;4.442;2022-09-21T04:39:46;9.93;;;5.53;;
25922;SDS011;13725;51.170;4.442;2022-09-21T04:42:11;10.70;;;5.63;;
25922;SDS011;13725;51.170;4.442;2022-09-21T04:44:37;11.77;;;5.50;;
25922;SDS011;13725;51.170;4.442;2022-09-21T04:47:04;10.02;;;5.63;;
25922;SDS011;13725;51.170;4.442;2022-09-21T04:49:29;13.82;;;5.20;;
25922;SDS011;13725;51.170;4.442;2022-09-21T04:51:55;13.15;;;6.25;;
25922;SDS011;13725;51.170;4.442;2022-09-21T04:54:21;10.40;;;5.10;;
25922;SDS011;13725;51.170;4.442;2022-09-21T04:56:47;16.98;;;6.07;;
25922;SDS011;13725;51.170;4.442;2022-09-21T04:59:13;10.57;;;5.20;;
25922;SDS011;13725;51.170;4.442;2022-09-21T05:01:38;14.63;;;5.30;;
25922;SDS011;13725;51.170;4.442;2022-09-21T05:04:04;10.10;;;5.75;;
25922;SDS011;13725;51.170;4.442;2022-09-21T05:06:31;8.60;;;4.72;;
25922;SDS011;13725;51.170;4.442;2022-09-21T05:08:58;11.63;;;4.95;;
25922;SDS011;13725;51.170;4.442;2022-09-21T05:11:42;10.77;;;5.93;;
25922;SDS011;13725;51.170;4.442;2022-09-21T05:14:08;8.30;;;5.63;;
25922;SDS011;13725;51.170;4.442;2022-09-21T05:16:35;10.05;;;5.35;;
25922;SDS011;13725;51.170;4.442;2022-09-21T05:19:01;11.43;;;5.95;;
25922;SDS011;13725;51.170;4.442;2022-09-21T05:21:27;8.98;;;5.57;;
25922;SDS011;13725;51.170;4.442;2022-09-21T05:23:55;10.25;;;6.40;;
25922;SDS011;13725;51.170;4.442;2022-09-21T05:26:21;10.10;;;6.35;;
25922;SDS011;13725;51.170;4.442;2022-09-21T05:28:47;14.00;;;6.43;;
25922;SDS011;13725;51.170;4.442;2022-09-21T05:33:52;10.18;;;5.90;;
25922;SDS011;13725;51.170;4.442;2022-09-21T05:36:37;13.65;;;6.13;;
25922;SDS011;13725;51.170;4.442;2022-09-21T05:39:08;10.10;;;5.82;;
25922;SDS011;13725;51.170;4.442;2022-09-21T05:41:35;8.48;;;5.43;;
25922;SDS011;13725;51.170;4.442;2022-09-21T05:44:01;10.20;;;6.50;;
25922;SDS011;13725;51.170;4.442;2022-09-21T05:48:59;11.77;;;5.07;;
25922;SDS011;13725;51.170;4.442;2022-09-21T05:54:19;10.88;;;5.72;;
25922;SDS011;13725;51.170;4.442;2022-09-21T05:59:50;10.35;;;5.45;;
25922;SDS011;13725;51.170;4.442;2022-09-21T06:02:46;10.30;;;5.40;;
25922;SDS011;13725;51.170;4.442;2022-09-21T06:05:26;13.32;;;6.13;;
25922;SDS011;13725;51.170;4.442;2022-09-21T06:07:52;10.27;;;6.07;;
25922;SDS011;13725;51.170;4.442;2022-09-21T06:10:17;11.50;;;5.70;;
25922;SDS011;13725;51.170;4.442;2022-09-21T06:12:43;12.57;;;6.53;;
25922;SDS011;13725;51.170;4.442;2022-09-21T06:15:10;10.55;;;5.60;;
25922;SDS011;13725;51.170;4.442;2022-09-21T06:17:38;12.80;;;5.32;;
25922;SDS011;13725;51.170;4.442;2022-09-21T06:20:04;9.82;;;5.85;;
25922;SDS011;13725;51.170;4.442;2022-09-21T06:22:31;9.85;;;5.40;;
25922;SDS011;13725;51.170;4.442;2022-09-21T06:24:57;12.68;;;7.00;;
25922;SDS011;13725;51.170;4.442;2022-09-21T06:27:23;11.95;;;6.35;;
25922;SDS011;13725;51.170;4.442;2022-09-21T06:29:49;12.98;;;6.20;;
25922;SDS011;13725;51.170;4.442;2022-09-21T06:32:14;20.13;;;8.63;;
25922;SDS011;13725;51.170;4.442;2022-09-21T06:34:40;12.90;;;6.38;;
25922;SDS011;13725;51.170;4.442;2022-09-21T06:37:07;10.93;;;6.38;;
25922;SDS011;13725;51.170;4.442;2022-09-21T06:39:33;8.52;;;5.20;;
25922;SDS011;13725;51.170;4.442;2022-09-21T06:41:59;10.68;;;5.63;;
25922;SDS011;13725;51.170;4.442;2022-09-21T06:44:25;9.75;;;5.60;;
25922;SDS011;13725;51.170;4.442;2022-09-21T06:46:52;11.15;;;5.30;;
25922;SDS011;13725;51.170;4.442;2022-09-21T06:49:17;13.80;;;6.18;;
25922;SDS011;13725;51.170;4.442;2022-09-21T06:51:43;8.27;;;5.28;;
25922;SDS011;13725;51.170;4.442;2022-09-21T06:54:09;14.70;;;5.82;;
25922;SDS011;13725;51.170;4.442;2022-09-21T06:56:35;10.90;;;5.38;;
25922;SDS011;13725;51.170;4.442;2022-09-21T06:59:01;10.10;;;5.00;;
25922;SDS011;13725;51.170;4.442;2022-09-21T07:01:27;9.07;;;5.38;;
25922;SDS011;13725;51.170;4.442;2022-09-21T07:03:52;9.98;;;5.28;;
25922;SDS011;13725;51.170;4.442;2022-09-21T07:06:18;11.88;;;5.57;;
25922;SDS011;13725;51.170;4.442;2022-09-21T07:08:45;12.02;;;4.90;;
25922;SDS011;13725;51.170;4.442;2022-09-21T07:11:11;9.85;;;4.85;;
25922;SDS011;13725;51.170;4.442;2022-09-21T07:13:38;8.52;;;4.57;;
25922;SDS011;13725;51.170;4.442;2022-09-21T07:16:05;9.60;;;4.38;;
25922;SDS011;13725;51.170;4.442;2022-09-21T07:18:35;8.93;;;4.25;;
25922;SDS011;13725;51.170;4.442;2022-09-21T07:21:06;11.15;;;5.72;;
25922;SDS011;13725;51.170;4.442;2022-09-21T07:23:33;9.60;;;4.43;;
25922;SDS011;13725;51.170;4.442;2022-09-21T07:26:00;6.82;;;4.30;;
25922;SDS011;13725;51.170;4.442;2022-09-21T07:28:28;8.50;;;3.78;;
25922;SDS011;13725;51.170;4.442;2022-09-21T07:30:55;6.85;;;3.97;;
25922;SDS011;13725;51.170;4.442;2022-09-21T07:33:22;11.15;;;3.80;;
25922;SDS011;13725;51.170;4.442;2022-09-21T07:35:52;10.95;;;4.53;;
25922;SDS011;13725;51.170;4.442;2022-09-21T07:38:20;7.07;;;3.83;;
25922;SDS011;13725;51.170;4.442;2022-09-21T07:40:46;10.75;;;4.28;;
25922;SDS011;13725;51.170;4.442;2022-09-21T07:43:12;10.70;;;4.65;;
25922;SDS011;13725;51.170;4.442;2022-09-21T07:45:38;7.18;;;4.15;;
25922;SDS011;13725;51.170;4.442;2022-09-21T07:48:04;12.80;;;4.53;;
25922;SDS011;13725;51.170;4.442;2022-09-21T07:50:32;6.68;;;3.78;;
25922;SDS011;13725;51.170;4.442;2022-09-21T07:52:59;8.98;;;4.40;;
25922;SDS011;13725;51.170;4.442;2022-09-21T07:55:26;6.78;;;4.20;;
25922;SDS011;13725;51.170;4.442;2022-09-21T07:57:52;7.65;;;3.65;;
25922;SDS011;13725;51.170;4.442;2022-09-21T08:00:36;9.10;;;4.00;;
25922;SDS011;13725;51.170;4.442;2022-09-21T08:03:02;10.88;;;3.75;;
25922;SDS011;13725;51.170;4.442;2022-09-21T08:05:28;7.63;;;3.22;;
25922;SDS011;13725;51.170;4.442;2022-09-21T08:07:54;9.25;;;3.60;;
25922;SDS011;13725;51.170;4.442;2022-09-21T08:10:21;14.15;;;4.68;;
25922;SDS011;13725;51.170;4.442;2022-09-21T08:12:48;9.40;;;3.42;;
25922;SDS011;13725;51.170;4.442;2022-09-21T08:15:14;6.78;;;3.55;;
25922;SDS011;13725;51.170;4.442;2022-09-21T08:17:39;9.45;;;3.53;;
25922;SDS011;13725;51.170;4.442;2022-09-21T08:20:05;49.28;;;7.25;;
25922;SDS011;13725;51.170;4.442;2022-09-21T08:22:31;26.83;;;5.40;;
25922;SDS011;13725;51.170;4.442;2022-09-21T08:24:57;7.03;;;3.65;;
25922;SDS011;13725;51.170;4.442;2022-09-21T08:27:23;10.13;;;3.22;;
25922;SDS011;13725;51.170;4.442;2022-09-21T08:29:51;6.72;;;3.05;;
25922;SDS011;13725;51.170;4.442;2022-09-21T08:32:17;9.15;;;3.42;;
25922;SDS011;13725;51.170;4.442;2022-09-21T08:34:43;5.85;;;3.08;;
25922;SDS011;13725;51.170;4.442;2022-09-21T08:37:08;5.40;;;3.22;;
25922;SDS011;13725;51.170;4.442;2022-09-21T08:39:34;12.40;;;3.10;;
25922;SDS011;13725;51.170;4.442;2022-09-21T08:44:51;5.97;;;2.83;;
25922;SDS011;13725;51.170;4.442;2022-09-21T08:47:22;10.07;;;2.70;;
25922;SDS011;13725;51.170;4.442;2022-09-21T08:49:59;5.07;;;2.58;;
25922;SDS011;13725;51.170;4.442;2022-09-21T08:52:26;48.65;;;8.10;;
25922;SDS011;13725;51.170;4.442;2022-09-21T08:54:54;8.25;;;3.00;;
25922;SDS011;13725;51.170;4.442;2022-09-21T08:57:30;9.30;;;2.88;;
25922;SDS011;13725;51.170;4.442;2022-09-21T08:59:57;8.25;;;2.92;;
25922;SDS011;13725;51.170;4.442;2022-09-21T09:10:58;6.30;;;2.60;;
25922;SDS011;13725;51.170;4.442;2022-09-21T09:23:42;3.53;;;1.80;;
25922;SDS011;13725;51.170;4.442;2022-09-21T09:26:31;4.32;;;1.50;;
25922;SDS011;13725;51.170;4.442;2022-09-21T09:29:19;4.20;;;1.52;;
25922;SDS011;13725;51.170;4.442;2022-09-21T09:31:56;5.57;;;1.80;;
25922;SDS011;13725;51.170;4.442;2022-09-21T09:34:29;5.25;;;1.85;;
25922;SDS011;13725;51.170;4.442;2022-09-21T09:36:59;6.50;;;1.30;;
25922;SDS011;13725;51.170;4.442;2022-09-21T09:39:34;3.70;;;1.08;;
25922;SDS011;13725;51.170;4.442;2022-09-21T09:45:26;6.30;;;0.80;;
25922;SDS011;13725;51.170;4.442;2022-09-21T09:50:29;3.88;;;1.00;;
25922;SDS011;13725;51.170;4.442;2022-09-21T09:53:00;5.50;;;1.13;;
25922;SDS011;13725;51.170;4.442;2022-09-21T09:55:34;5.65;;;1.17;;
25922;SDS011;13725;51.170;4.442;2022-09-21T09:58:02;4.38;;;0.98;;
25922;SDS011;13725;51.170;4.442;2022-09-21T10:00:29;3.25;;;1.23;;
25922;SDS011;13725;51.170;4.442;2022-09-21T10:02:55;3.10;;;1.30;;
25922;SDS011;13725;51.170;4.442;2022-09-21T10:05:35;3.22;;;1.55;;
25922;SDS011;13725;51.170;4.442;2022-09-21T10:08:07;3.35;;;1.70;;
25922;SDS011;13725;51.170;4.442;2022-09-21T10:10:53;3.80;;;1.70;;
25922;SDS011;13725;51.170;4.442;2022-09-21T10:16:11;5.13;;;1.88;;
25922;SDS011;13725;51.170;4.442;2022-09-21T10:18:49;5.70;;;2.03;;
25922;SDS011;13725;51.170;4.442;2022-09-21T10:24:36;4.28;;;2.33;;
25922;SDS011;13725;51.170;4.442;2022-09-21T10:34:36;5.70;;;2.40;;
25922;SDS011;13725;51.170;4.442;2022-09-21T10:37:48;5.53;;;2.10;;
25922;SDS011;13725;51.170;4.442;2022-09-21T10:39:53;5.57;;;2.15;;
25922;SDS011;13725;51.170;4.442;2022-09-21T10:42:20;3.42;;;1.30;;
25922;SDS011;13725;51.170;4.442;2022-09-21T10:44:49;3.63;;;1.13;;
25922;SDS011;13725;51.170;4.442;2022-09-21T10:47:36;2.75;;;1.00;;
25922;SDS011;13725;51.170;4.442;2022-09-21T10:50:07;2.95;;;0.80;;
25922;SDS011;13725;51.170;4.442;2022-09-21T10:53:24;14.80;;;2.50;;
25922;SDS011;13725;51.170;4.442;2022-09-21T10:58:31;5.00;;;1.00;;
25922;SDS011;13725;51.170;4.442;2022-09-21T11:01:41;1.83;;;0.90;;
25922;SDS011;13725;51.170;4.442;2022-09-21T11:03:55;1.88;;;0.80;;
25922;SDS011;13725;51.170;4.442;2022-09-21T11:06:35;1.83;;;0.60;;
25922;SDS011;13725;51.170;4.442;2022-09-21T11:09:08;4.18;;;0.93;;
25922;SDS011;13725;51.170;4.442;2022-09-21T11:16:58;3.03;;;0.90;;
25922;SDS011;13725;51.170;4.442;2022-09-21T11:22:21;3.78;;;0.70;;
25922;SDS011;13725;51.170;4.442;2022-09-21T11:27:39;7.63;;;1.20;;
25922;SDS011;13725;51.170;4.442;2022-09-21T11:30:12;5.55;;;1.25;;
25922;SDS011;13725;51.170;4.442;2022-09-21T11:38:17;9.57;;;1.55;;
25922;SDS011;13725;51.170;4.442;2022-09-21T11:41:04;6.43;;;0.98;;
25922;SDS011;13725;51.170;4.442;2022-09-21T11:51:50;2.30;;;0.90;;
25922;SDS011;13725;51.170;4.442;2022-09-21T11:59:52;4.55;;;1.25;;
25922;SDS011;13725;51.170;4.442;2022-09-21T12:05:59;3.63;;;0.80;;
25922;SDS011;13725;51.170;4.442;2022-09-21T12:30:03;2.97;;;0.88;;
25922;SDS011;13725;51.170;4.442;2022-09-21T12:35:23;8.65;;;1.92;;
25922;SDS011;13725;51.170;4.442;2022-09-21T12:46:57;4.60;;;1.10;;
25922;SDS011;13725;51.170;4.442;2022-09-21T12:49:35;3.00;;;0.90;;
25922;SDS011;13725;51.170;4.442;2022-09-21T12:52:09;2.42;;;0.50;;
25922;SDS011;13725;51.170;4.442;2022-09-21T13:00:15;3.28;;;1.02;;
25922;SDS011;13725;51.170;4.442;2022-09-21T13:08:37;8.93;;;1.23;;
25922;SDS011;13725;51.170;4.442;2022-09-21T13:11:07;3.65;;;0.88;;
25922;SDS011;13725;51.170;4.442;2022-09-21T13:16:21;2.13;;;0.65;;
25922;SDS011;13725;51.170;4.442;2022-09-21T13:19:03;3.40;;;0.57;;
25922;SDS011;13725;51.170;4.442;2022-09-21T13:21:42;3.28;;;0.93;;
25922;SDS011;13725;51.170;4.442;2022-09-21T13:24:27;5.10;;;1.05;;
25922;SDS011;13725;51.170;4.442;2022-09-21T13:26:55;4.72;;;1.20;;
25922;SDS011;13725;51.170;4.442;2022-09-21T13:29:30;6.72;;;0.93;;
25922;SDS011;13725;51.170;4.442;2022-09-21T13:34:35;2.38;;;1.17;;
25922;SDS011;13725;51.170;4.442;2022-09-21T13:44:59;2.88;;;0.80;;
25922;SDS011;13725;51.170;4.442;2022-09-21T13:47:38;2.63;;;0.90;;
25922;SDS011;13725;51.170;4.442;2022-09-21T13:52:59;3.03;;;0.68;;
25922;SDS011;13725;51.170;4.442;2022-09-21T13:57:59;2.22;;;0.70;;
25922;SDS011;13725;51.170;4.442;2022-09-21T14:00:57;10.93;;;1.60;;
25922;SDS011;13725;51.170;4.442;2022-09-21T14:03:35;4.32;;;1.02;;
25922;SDS011;13725;51.170;4.442;2022-09-21T14:06:13;3.10;;;0.73;;
25922;SDS011;13725;51.170;4.442;2022-09-21T14:08:48;1.70;;;0.95;;
25922;SDS011;13725;51.170;4.442;2022-09-21T14:29:43;3.35;;;0.80;;
25922;SDS011;13725;51.170;4.442;2022-09-21T14:32:22;4.25;;;1.15;;
25922;SDS011;13725;51.170;4.442;2022-09-21T14:34:51;4.70;;;1.58;;
25922;SDS011;13725;51.170;4.442;2022-09-21T14:40:02;6.35;;;0.75;;
25922;SDS011;13725;51.170;4.442;2022-09-21T14:42:40;5.07;;;0.90;;
25922;SDS011;13725;51.170;4.442;2022-09-21T14:45:09;5.38;;;1.40;;
25922;SDS011;13725;51.170;4.442;2022-09-21T15:01:37;8.93;;;1.42;;
25922;SDS011;13725;51.170;4.442;2022-09-21T15:10:44;7.18;;;0.90;;
25922;SDS011;13725;51.170;4.442;2022-09-21T15:18:41;6.70;;;2.00;;
25922;SDS011;13725;51.170;4.442;2022-09-21T15:22:14;11.82;;;1.63;;
25922;SDS011;13725;51.170;4.442;2022-09-21T15:24:30;7.90;;;1.30;;
25922;SDS011;13725;51.170;4.442;2022-09-21T15:27:05;4.88;;;1.45;;
25922;SDS011;13725;51.170;4.442;2022-09-21T15:29:34;7.75;;;1.40;;
25922;SDS011;13725;51.170;4.442;2022-09-21T15:32:01;5.05;;;1.30;;
25922;SDS011;13725;51.170;4.442;2022-09-21T15:34:30;10.43;;;1.73;;
25922;SDS011;13725;51.170;4.442;2022-09-21T15:40:05;6.18;;;1.90;;
25922;SDS011;13725;51.170;4.442;2022-09-21T15:42:47;2.72;;;0.73;;
25922;SDS011;13725;51.170;4.442;2022-09-21T15:45:29;6.55;;;1.38;;
25922;SDS011;13725;51.170;4.442;2022-09-21T15:48:16;4.35;;;1.00;;
25922;SDS011;13725;51.170;4.442;2022-09-21T15:50:45;3.25;;;1.00;;
25922;SDS011;13725;51.170;4.442;2022-09-21T15:53:19;3.33;;;1.20;;
25922;SDS011;13725;51.170;4.442;2022-09-21T15:55:50;2.92;;;0.90;;
25922;SDS011;13725;51.170;4.442;2022-09-21T15:58:22;4.00;;;1.00;;
25922;SDS011;13725;51.170;4.442;2022-09-21T16:00:52;11.02;;;1.35;;
25922;SDS011;13725;51.170;4.442;2022-09-21T16:03:23;4.68;;;0.70;;
25922;SDS011;13725;51.170;4.442;2022-09-21T16:05:52;1.85;;;0.75;;
25922;SDS011;13725;51.170;4.442;2022-09-21T16:08:27;3.33;;;0.85;;
25922;SDS011;13725;51.170;4.442;2022-09-21T16:11:12;6.57;;;1.70;;
25922;SDS011;13725;51.170;4.442;2022-09-21T16:14:12;2.90;;;1.15;;
25922;SDS011;13725;51.170;4.442;2022-09-21T16:17:03;2.47;;;0.82;;
25922;SDS011;13725;51.170;4.442;2022-09-21T16:22:22;4.63;;;0.85;;
25922;SDS011;13725;51.170;4.442;2022-09-21T16:24:56;3.78;;;0.85;;
25922;SDS011;13725;51.170;4.442;2022-09-21T16:27:27;4.00;;;0.85;;
25922;SDS011;13725;51.170;4.442;2022-09-21T16:29:55;2.80;;;1.02;;
25922;SDS011;13725;51.170;4.442;2022-09-21T16:32:28;4.97;;;0.90;;
25922;SDS011;13725;51.170;4.442;2022-09-21T16:37:53;2.95;;;0.90;;
25922;SDS011;13725;51.170;4.442;2022-09-21T16:40:22;7.35;;;1.00;;
25922;SDS011;13725;51.170;4.442;2022-09-21T16:42:48;3.40;;;1.05;;
25922;SDS011;13725;51.170;4.442;2022-09-21T16:45:32;8.68;;;1.38;;
25922;SDS011;13725;51.170;4.442;2022-09-21T16:47:59;3.85;;;1.45;;
25922;SDS011;13725;51.170;4.442;2022-09-21T16:50:26;7.35;;;1.00;;
25922;SDS011;13725;51.170;4.442;2022-09-21T16:52:52;3.10;;;1.10;;
25922;SDS011;13725;51.170;4.442;2022-09-21T16:55:18;3.30;;;1.10;;
25922;SDS011;13725;51.170;4.442;2022-09-21T16:57:44;4.18;;;1.30;;
25922;SDS011;13725;51.170;4.442;2022-09-21T17:00:12;6.00;;;1.20;;
25922;SDS011;13725;51.170;4.442;2022-09-21T17:02:41;6.88;;;1.30;;
25922;SDS011;13725;51.170;4.442;2022-09-21T17:05:09;3.38;;;1.00;;
25922;SDS011;13725;51.170;4.442;2022-09-21T17:07:35;2.25;;;1.20;;
25922;SDS011;13725;51.170;4.442;2022-09-21T17:10:00;3.72;;;1.38;;
25922;SDS011;13725;51.170;4.442;2022-09-21T17:12:39;7.30;;;1.50;;
25922;SDS011;13725;51.170;4.442;2022-09-21T17:15:05;5.75;;;1.35;;
25922;SDS011;13725;51.170;4.442;2022-09-21T17:17:32;8.02;;;1.27;;
25922;SDS011;13725;51.170;4.442;2022-09-21T17:20:00;3.95;;;1.30;;
25922;SDS011;13725;51.170;4.442;2022-09-21T17:24:56;3.00;;;1.20;;
25922;SDS011;13725;51.170;4.442;2022-09-21T17:27:23;2.90;;;1.33;;
25922;SDS011;13725;51.170;4.442;2022-09-21T17:29:50;6.00;;;1.60;;
25922;SDS011;13725;51.170;4.442;2022-09-21T17:32:19;4.22;;;1.50;;
25922;SDS011;13725;51.170;4.442;2022-09-21T17:34:50;5.28;;;1.60;;
25922;SDS011;13725;51.170;4.442;2022-09-21T17:37:22;6.85;;;1.60;;
25922;SDS011;13725;51.170;4.442;2022-09-21T17:39:49;4.95;;;1.42;;
25922;SDS011;13725;51.170;4.442;2022-09-21T17:42:18;4.10;;;1.90;;
25922;SDS011;13725;51.170;4.442;2022-09-21T17:52:35;4.47;;;1.98;;
25922;SDS011;13725;51.170;4.442;2022-09-21T17:55:19;6.72;;;2.33;;
25922;SDS011;13725;51.170;4.442;2022-09-21T18:03:21;9.63;;;2.55;;
25922;SDS011;13725;51.170;4.442;2022-09-21T18:05:50;12.02;;;2.70;;
25922;SDS011;13725;51.170;4.442;2022-09-21T18:08:24;5.63;;;2.83;;
25922;SDS011;13725;51.170;4.442;2022-09-21T18:11:02;5.45;;;2.40;;
25922;SDS011;13725;51.170;4.442;2022-09-21T18:16:30;5.78;;;2.30;;
25922;SDS011;13725;51.170;4.442;2022-09-21T18:21:50;10.05;;;2.90;;
25922;SDS011;13725;51.170;4.442;2022-09-21T18:24:24;4.30;;;2.10;;
25922;SDS011;13725;51.170;4.442;2022-09-21T18:26:52;3.22;;;2.40;;
25922;SDS011;13725;51.170;4.442;2022-09-21T18:42:45;12.55;;;3.28;;
25922;SDS011;13725;51.170;4.442;2022-09-21T18:45:27;6.57;;;2.83;;
25922;SDS011;13725;51.170;4.442;2022-09-21T18:48:04;8.77;;;3.03;;
25922;SDS011;13725;51.170;4.442;2022-09-21T18:56:23;7.53;;;3.22;;
25922;SDS011;13725;51.170;4.442;2022-09-21T18:59:02;8.25;;;4.03;;
25922;SDS011;13725;51.170;4.442;2022-09-21T19:01:28;9.57;;;3.95;;
25922;SDS011;13725;51.170;4.442;2022-09-21T19:03:58;10.65;;;4.65;;
25922;SDS011;13725;51.170;4.442;2022-09-21T19:11:44;10.68;;;5.22;;
25922;SDS011;13725;51.170;4.442;2022-09-21T19:23:46;8.45;;;4.40;;
25922;SDS011;13725;51.170;4.442;2022-09-21T19:26:28;9.15;;;5.03;;
25922;SDS011;13725;51.170;4.442;2022-09-21T19:29:18;10.98;;;5.55;;
25922;SDS011;13725;51.170;4.442;2022-09-21T19:31:50;14.45;;;5.95;;
25922;SDS011;13725;51.170;4.442;2022-09-21T19:34:17;12.98;;;6.05;;
25922;SDS011;13725;51.170;4.442;2022-09-21T19:36:44;9.73;;;5.80;;
25922;SDS011;13725;51.170;4.442;2022-09-21T19:39:13;11.68;;;6.03;;
25922;SDS011;13725;51.170;4.442;2022-09-21T19:41:41;10.50;;;5.90;;
25922;SDS011;13725;51.170;4.442;2022-09-21T19:49:20;13.40;;;6.60;;
25922;SDS011;13725;51.170;4.442;2022-09-21T19:51:52;12.30;;;6.95;;
25922;SDS011;13725;51.170;4.442;2022-09-21T19:54:20;11.95;;;6.60;;